Carmel, ME (04419)

7:05 PM EST on November 23, 2014 (GMT -0500)
Hermon Center | Change Station
CLOSE
Current Station
Personal Weather Station
Location: Hermon, ME
Elevation: 145 ft
Nearby Weather Stations

Elev 145 ft 44.81 °N, 68.91 °W | Updated 2 seconds ago

Overcast
Overcast
35.1 °F
Feels Like 35 °F
N
0.0
Wind Variable Wind from ENE
Gusts 0.0 mph

Today
High -- | Low -- °F
--% Chance of Precip.
Yesterday
High -- | Low -- °F
Precip. -- in
6:43 AM 4:00 PM
Waxing Crescent, 3% visible
Pressure 30.13 in
Visibility 10.0 miles
Clouds Mostly Cloudy 4100 ft
Windchill 35 °F
Dew Point 31 °F
Humidity 84%
Rainfall 0.00 in
Snow Depth Not available.
UV 0 out of 12
Pollen .10 out of 12
Air Quality Not available.
Flu Activity Not available.
METAR KBGR 232353Z 00000KT 10SM BKN041 04/00 A3012 RMK AO2 SLP202 T00390000 10100 20039 53006

More Conditions Fewer Conditions

Pressure 30.13 in
Visibility 10.0 miles
Clouds Mostly Cloudy 4100 ft
Windchill 35 °F
Dew Point 31 °F
Humidity 84%
Rainfall 0.00 in
Snow Depth Not available.
UV 0 out of 12
Pollen .10 out of 12
Air Quality Not available.
Flu Activity Not available.
METAR KBGR 232353Z 00000KT 10SM BKN041 04/00 A3012 RMK AO2 SLP202 T00390000 10100 20039 53006

More Conditions Fewer Conditions

10-Day Weather Forecast

Almanac

Astronomy

Nov. 23, 2014 Rise Set
Actual Time
Civil Twilight
Nautical Twilight
Astronomical Twilight
Moon
Length of Visible Light
Length of Day
Tomorrow will be .
, % of the Moon is Illuminated

Today's Extremes

State Highs State Lows

Community

WunderPhotos

Upload Photos

1,773,215 photos uploaded!

WunderBlogs® & News

Nearby

Air Quality

  Air Quality AQ Index Pollutant
Not available.

Snow Depth

Station Depth Elevation

Earthquake Activity

City Distance Mag. Time & Date
Minimum magnitude displayed is 2.5.

Coastal Water Temperatures

Place Temperature

Nearby Weather Stations